Airport View

Enter AWOS ICAO identifier for current METAR.

ex. KFNL

KALM 112230Z AUTO 20006KT 10SM CLR 11/04 A3022 RMK AO2

11 Dec 2019 22:31

Frequency: 127.825

Phone: 575-439-4112

Other Area AWOS: KHMN - KSRR - KLRU - KBIF

TAF KHMN 111700Z 1117/1223 VRB06KT 3200 BR SCT003 BKN250 QNH3035INS TEMPO 1117/1119 0800 FG VV001 BECMG 1118/1119 20009KT 9999 NSW FEW080 BKN250 QNH3031INS BECMG 1202/1203 VRB06KT 9999 SCT080 BKN250 QNH3024INS TX14/1123Z TN02/1213Z